createdAt,value
2023-03-22T00:01:19.449Z,9.37
2023-03-22T00:03:47.821Z,10.07
2023-03-22T00:06:16.339Z,10.30
2023-03-22T00:08:44.492Z,10.40
2023-03-22T00:11:12.821Z,9.27
2023-03-22T00:13:42.935Z,9.57
2023-03-22T00:16:10.955Z,9.60
2023-03-22T00:18:37.985Z,9.23
2023-03-22T00:21:05.970Z,9.67
2023-03-22T00:23:32.913Z,10.20
2023-03-22T00:25:59.801Z,9.57
2023-03-22T00:28:26.759Z,10.00
2023-03-22T00:31:00.885Z,10.60
2023-03-22T00:33:29.663Z,9.80
2023-03-22T00:36:06.704Z,10.43
2023-03-22T00:38:44.957Z,10.93
2023-03-22T00:41:18.823Z,10.47
2023-03-22T00:43:47.663Z,10.13
2023-03-22T00:46:17.174Z,10.13
2023-03-22T00:48:44.112Z,10.67
2023-03-22T00:51:13.512Z,9.50
2023-03-22T00:53:43.009Z,10.47
2023-03-22T00:56:16.605Z,10.20
2023-03-22T00:58:43.841Z,9.83
2023-03-22T01:01:14.592Z,10.27
2023-03-22T01:03:43.656Z,10.27
2023-03-22T01:06:11.623Z,10.40
2023-03-22T01:08:39.425Z,9.80
2023-03-22T01:11:07.717Z,9.90
2023-03-22T01:13:37.769Z,10.23
2023-03-22T01:16:06.699Z,9.87
2023-03-22T01:18:34.031Z,10.40
2023-03-22T01:21:01.277Z,9.43
2023-03-22T01:23:28.585Z,9.40
2023-03-22T01:25:55.547Z,8.83
2023-03-22T01:28:22.820Z,9.90
2023-03-22T01:30:50.983Z,8.53
2023-03-22T01:33:18.072Z,7.67
2023-03-22T01:35:45.226Z,8.03
2023-03-22T01:38:12.526Z,7.63
2023-03-22T01:40:39.761Z,8.30
2023-03-22T01:43:15.663Z,8.73
2023-03-22T01:46:00.964Z,8.77
2023-03-22T01:48:42.094Z,9.37
2023-03-22T01:51:15.262Z,9.93
2023-03-22T01:53:55.358Z,9.20
2023-03-22T01:56:26.924Z,9.80
2023-03-22T01:58:55.158Z,9.90
2023-03-22T02:01:23.290Z,9.33
2023-03-22T02:04:15.492Z,9.60
2023-03-22T02:06:42.749Z,8.53
2023-03-22T02:09:12.890Z,9.07
2023-03-22T02:11:50.181Z,9.03
2023-03-22T02:14:58.918Z,8.30
2023-03-22T02:17:37.591Z,8.50
2023-03-22T02:20:28.181Z,9.13
2023-03-22T02:23:47.879Z,7.70
2023-03-22T02:26:59.452Z,7.63
2023-03-22T02:30:02.958Z,7.87
2023-03-22T02:32:45.549Z,8.03
2023-03-22T02:35:38.648Z,7.77
2023-03-22T02:38:19.989Z,7.73
2023-03-22T02:41:06.236Z,8.13
2023-03-22T02:44:23.053Z,9.37
2023-03-22T02:47:06.665Z,8.83
2023-03-22T02:49:49.366Z,8.83
2023-03-22T02:52:35.904Z,9.23
2023-03-22T02:55:40.283Z,9.97
2023-03-22T02:58:39.352Z,9.27
2023-03-22T03:01:10.494Z,7.87
2023-03-22T03:03:39.555Z,8.67
2023-03-22T03:06:15.134Z,8.13
2023-03-22T03:08:44.213Z,8.80
2023-03-22T03:11:11.045Z,8.37
2023-03-22T03:13:38.208Z,8.67
2023-03-22T03:16:07.854Z,8.73
2023-03-22T03:18:54.544Z,8.60
2023-03-22T03:21:30.308Z,8.97
2023-03-22T03:24:13.375Z,8.30
2023-03-22T03:27:06.733Z,8.50
2023-03-22T03:30:00.204Z,7.93
2023-03-22T03:32:35.512Z,8.80
2023-03-22T03:35:25.379Z,9.53
2023-03-22T03:37:57.659Z,8.50
2023-03-22T03:40:31.263Z,8.93
2023-03-22T03:43:02.898Z,8.60
2023-03-22T03:45:30.814Z,8.83
2023-03-22T03:48:01.388Z,8.67
2023-03-22T03:50:28.621Z,8.80
2023-03-22T03:52:56.339Z,8.43
2023-03-22T03:55:24.332Z,8.97
2023-03-22T03:57:51.232Z,8.30
2023-03-22T04:00:19.232Z,8.70
2023-03-22T04:02:46.122Z,9.00
2023-03-22T04:05:13.629Z,8.23
2023-03-22T04:07:41.192Z,8.97
2023-03-22T04:10:08.655Z,9.10
2023-03-22T04:12:35.880Z,9.07
2023-03-22T04:15:02.751Z,9.30
2023-03-22T04:17:29.592Z,8.63
2023-03-22T04:19:56.757Z,8.80
2023-03-22T04:22:25.043Z,8.60
2023-03-22T04:24:51.886Z,8.50
2023-03-22T04:27:20.868Z,8.90
2023-03-22T04:29:51.115Z,9.47
2023-03-22T04:32:19.192Z,8.10
2023-03-22T04:34:49.012Z,8.67
2023-03-22T04:37:16.647Z,8.30
2023-03-22T04:39:43.805Z,8.03
2023-03-22T04:42:11.219Z,8.63
2023-03-22T04:44:38.111Z,8.20
2023-03-22T04:47:04.967Z,7.73
2023-03-22T04:49:31.952Z,7.87
2023-03-22T04:51:59.163Z,8.60
2023-03-22T04:54:26.102Z,8.30
2023-03-22T04:56:52.961Z,7.83
2023-03-22T04:59:20.526Z,7.83
2023-03-22T05:01:48.820Z,8.53
2023-03-22T05:04:19.787Z,8.37
2023-03-22T05:06:47.021Z,8.50
2023-03-22T05:09:14.266Z,7.87
2023-03-22T05:11:41.661Z,8.57
2023-03-22T05:14:09.302Z,7.53
2023-03-22T05:16:36.463Z,8.20
2023-03-22T05:19:03.474Z,8.53
2023-03-22T05:21:36.752Z,8.57
2023-03-22T05:24:04.406Z,7.73
2023-03-22T05:26:31.404Z,8.47
2023-03-22T05:28:58.246Z,8.40
2023-03-22T05:31:25.214Z,8.23
2023-03-22T05:33:52.854Z,7.90
2023-03-22T05:36:22.975Z,7.87
2023-03-22T05:38:50.538Z,7.97
2023-03-22T05:41:17.513Z,7.80
2023-03-22T05:43:45.073Z,8.30
2023-03-22T05:46:12.756Z,8.47
2023-03-22T05:48:41.057Z,8.83
2023-03-22T05:51:10.135Z,8.90
2023-03-22T05:53:37.248Z,8.53
2023-03-22T05:56:04.440Z,8.50
2023-03-22T05:58:33.825Z,7.90
2023-03-22T06:01:13.098Z,8.40
2023-03-22T06:03:40.252Z,8.27
2023-03-22T06:06:13.612Z,8.37
2023-03-22T06:08:40.917Z,8.90
2023-03-22T06:11:08.673Z,7.70
2023-03-22T06:13:35.554Z,8.37
2023-03-22T06:16:04.925Z,8.77
2023-03-22T06:18:33.033Z,8.23
2023-03-22T06:21:00.748Z,7.70
2023-03-22T06:23:28.194Z,8.30
2023-03-22T06:25:55.419Z,7.10
2023-03-22T06:28:22.286Z,7.53
2023-03-22T06:30:49.141Z,6.80
2023-03-22T06:33:15.959Z,7.43
2023-03-22T06:35:42.927Z,7.30
2023-03-22T06:38:09.855Z,7.47
2023-03-22T06:40:36.688Z,7.13
2023-03-22T06:43:07.028Z,6.60
2023-03-22T06:45:34.380Z,6.03
2023-03-22T06:48:01.637Z,7.13
2023-03-22T06:50:29.474Z,6.77
2023-03-22T06:52:56.715Z,6.70
2023-03-22T06:55:24.242Z,6.43
2023-03-22T06:57:54.673Z,6.20
2023-03-22T07:00:21.805Z,5.83
2023-03-22T07:02:49.987Z,6.37
2023-03-22T07:05:18.640Z,6.37
2023-03-22T07:07:46.341Z,5.57
2023-03-22T07:10:13.484Z,6.00
2023-03-22T07:12:40.630Z,6.17
2023-03-22T07:15:08.351Z,5.60
2023-03-22T07:17:35.396Z,5.53
2023-03-22T07:20:03.847Z,5.70
2023-03-22T07:22:30.916Z,5.70
2023-03-22T07:25:00.598Z,5.67
2023-03-22T07:27:28.501Z,5.10
2023-03-22T07:29:55.322Z,4.93
2023-03-22T07:32:22.252Z,4.90
2023-03-22T07:34:49.176Z,5.23
2023-03-22T07:37:16.007Z,4.90
2023-03-22T07:39:42.862Z,4.40
2023-03-22T07:42:09.676Z,5.10
2023-03-22T07:44:36.669Z,4.67
2023-03-22T07:47:03.561Z,4.60
2023-03-22T07:49:31.599Z,5.47
2023-03-22T07:51:58.530Z,4.87
2023-03-22T07:54:33.301Z,4.87
2023-03-22T07:57:01.328Z,4.03
2023-03-22T07:59:28.748Z,4.50
2023-03-22T08:01:55.919Z,4.40
2023-03-22T08:04:23.346Z,4.20
2023-03-22T08:06:51.345Z,4.20
2023-03-22T08:09:18.364Z,4.70
2023-03-22T08:11:45.326Z,4.20
2023-03-22T08:14:12.165Z,4.33
2023-03-22T08:16:39.285Z,4.17
2023-03-22T08:19:06.671Z,4.23
2023-03-22T08:21:33.516Z,4.47
2023-03-22T08:24:00.396Z,4.50
2023-03-22T08:26:27.820Z,4.23
2023-03-22T08:28:54.810Z,4.33
2023-03-22T08:31:22.400Z,4.07
2023-03-22T08:33:49.461Z,4.40
2023-03-22T08:36:22.672Z,4.00
2023-03-22T08:38:50.377Z,3.90
2023-03-22T08:41:17.219Z,4.23
2023-03-22T08:43:44.250Z,4.50
2023-03-22T08:46:11.141Z,4.47
2023-03-22T08:48:38.480Z,4.70
2023-03-22T08:51:06.698Z,4.23
2023-03-22T08:53:33.610Z,5.10
2023-03-22T08:56:01.781Z,4.67
2023-03-22T08:58:28.616Z,4.93
2023-03-22T09:00:55.755Z,4.30
2023-03-22T09:03:24.846Z,4.43
2023-03-22T09:05:51.837Z,5.03
2023-03-22T09:08:19.909Z,4.70
2023-03-22T09:10:51.982Z,4.53
2023-03-22T09:13:19.826Z,4.90
2023-03-22T09:15:47.021Z,4.87
2023-03-22T09:18:15.252Z,4.40
2023-03-22T09:20:43.070Z,4.40
2023-03-22T09:23:10.279Z,4.23
2023-03-22T09:25:37.194Z,4.30
2023-03-22T09:28:04.849Z,4.97
2023-03-22T09:30:31.824Z,3.80
2023-03-22T09:32:58.644Z,4.67
2023-03-22T09:35:25.962Z,4.23
2023-03-22T09:37:54.413Z,3.77
2023-03-22T09:40:31.585Z,4.30
2023-03-22T09:43:06.643Z,3.67
2023-03-22T09:45:43.893Z,4.07
2023-03-22T09:48:19.438Z,3.90
2023-03-22T09:50:52.491Z,3.80
2023-03-22T09:53:22.149Z,3.30
2023-03-22T09:56:31.275Z,3.33
2023-03-22T09:59:06.848Z,3.30
2023-03-22T10:02:01.377Z,3.00
2023-03-22T10:05:04.113Z,3.20
2023-03-22T10:07:56.365Z,2.70
2023-03-22T10:10:24.832Z,3.10
2023-03-22T10:13:00.190Z,2.73
2023-03-22T10:15:40.035Z,2.80
2023-03-22T10:18:12.799Z,3.30
2023-03-22T10:21:09.744Z,3.10
2023-03-22T10:23:55.703Z,2.90
2023-03-22T10:26:31.969Z,3.07
2023-03-22T10:29:12.366Z,2.47
2023-03-22T10:31:42.977Z,3.07
2023-03-22T10:34:31.006Z,2.63
2023-03-22T10:37:01.183Z,2.93
2023-03-22T10:39:41.129Z,2.87
2023-03-22T10:42:15.951Z,3.00
2023-03-22T10:44:48.077Z,3.37
2023-03-22T10:47:44.900Z,2.83
2023-03-22T10:50:28.640Z,2.90
2023-03-22T10:53:18.520Z,3.07
2023-03-22T10:55:45.542Z,2.67
2023-03-22T10:58:21.603Z,2.90
2023-03-22T11:00:56.868Z,2.80
2023-03-22T11:03:52.951Z,2.83
2023-03-22T11:06:39.167Z,2.63
2023-03-22T11:09:22.418Z,3.10
2023-03-22T11:11:56.209Z,3.20
2023-03-22T11:14:42.360Z,3.57
2023-03-22T11:17:14.492Z,3.10
2023-03-22T11:19:53.177Z,3.00
2023-03-22T11:22:36.487Z,3.40
2023-03-22T11:25:07.562Z,3.50
2023-03-22T11:27:34.576Z,3.37
2023-03-22T11:30:24.714Z,4.10
2023-03-22T11:33:20.953Z,3.63
2023-03-22T11:35:58.152Z,3.63
2023-03-22T11:38:36.449Z,3.20
2023-03-22T11:41:42.737Z,3.13
2023-03-22T11:44:15.832Z,3.60
2023-03-22T11:46:57.864Z,3.20
2023-03-22T11:49:50.220Z,3.43
2023-03-22T11:52:23.019Z,2.90
2023-03-22T11:54:51.784Z,2.80
2023-03-22T11:57:25.229Z,2.80
2023-03-22T12:00:02.048Z,2.60
2023-03-22T12:02:41.821Z,2.87
2023-03-22T12:05:23.206Z,2.73
2023-03-22T12:08:09.650Z,2.27
2023-03-22T12:10:44.057Z,2.30
2023-03-22T12:13:22.562Z,2.47
2023-03-22T12:15:55.831Z,2.53
2023-03-22T12:18:57.625Z,2.37
2023-03-22T12:21:24.529Z,2.57
2023-03-22T12:24:01.030Z,1.90
2023-03-22T12:26:30.928Z,2.20
2023-03-22T12:29:08.193Z,2.20
2023-03-22T12:31:45.856Z,2.87
2023-03-22T12:34:19.795Z,2.10
2023-03-22T12:36:51.658Z,2.20
2023-03-22T12:39:26.928Z,2.20
2023-03-22T12:41:57.947Z,1.70
2023-03-22T12:44:55.522Z,1.57
2023-03-22T12:47:43.504Z,1.57
2023-03-22T12:50:33.388Z,2.10
2023-03-22T12:53:02.445Z,2.40
2023-03-22T12:55:49.647Z,1.80
2023-03-22T12:58:22.923Z,2.13
2023-03-22T13:01:12.286Z,1.70
2023-03-22T13:03:52.568Z,1.90
2023-03-22T13:06:31.860Z,2.00
2023-03-22T13:09:08.830Z,2.10
2023-03-22T13:11:36.275Z,1.87
2023-03-22T13:14:03.295Z,1.60
2023-03-22T13:16:52.072Z,1.90
2023-03-22T13:19:36.406Z,2.05
2023-03-22T13:22:28.954Z,2.47
2023-03-22T13:25:12.589Z,1.98
2023-03-22T13:27:45.548Z,1.90
2023-03-22T13:30:20.362Z,1.80
2023-03-22T13:33:10.410Z,1.70
2023-03-22T13:36:23.853Z,1.77
2023-03-22T13:39:03.051Z,1.50
2023-03-22T13:41:33.056Z,1.70
2023-03-22T13:44:04.820Z,1.42
2023-03-22T13:46:36.308Z,1.52
2023-03-22T13:49:03.419Z,1.20
2023-03-22T13:51:32.695Z,1.40
2023-03-22T13:54:07.279Z,1.40
2023-03-22T13:57:00.964Z,1.23
2023-03-22T13:59:27.912Z,1.08
2023-03-22T14:02:04.909Z,1.27
2023-03-22T14:04:53.086Z,1.10
2023-03-22T14:07:22.766Z,1.10
2023-03-22T14:09:58.753Z,1.48
2023-03-22T14:12:44.565Z,1.15
2023-03-22T14:15:19.157Z,1.13
2023-03-22T14:17:56.945Z,1.30
2023-03-22T14:20:29.973Z,1.27
